X Fechar
foto

X Fechar
foto
Clique e saiba mais
Clique e saiba mais
Clique e saiba mais
Clique e saiba mais
Clique e saiba mais
Clique e saiba mais

Edgers Racing

KTM Sacramento

Toro Sports

SP Race Park

JPS Racing

MotoX Pneus

Clique e saiba mais

> Notícias > Últimas Notícias

Mundial de Motocross: resultados e vídeo das classificatórias na Suíça
Publicado em: 18/08/2018

Antonio Cairoli e Jorge Prado vencem as provas de sábado na Suíça
Redação MotoX.com.br: Lucidio Arruda  - Foto: Bavo Swijgers


Tim Gajser fez o holeshot em Frauenfeld

Antonio Cairoli venceu a classificatória do MXGP da Suíça em Frauenfeld-Gachnang após largar na quinta posição. O italiano enfrentou grande resistência de Clemente Desalle antes de assumir a segunda posição e no final superou Tim Gajser, que liderou a maior parte da corrida e perdeu ritmo no final em virtude de um problema no freio traseiro.

Jeffrey Herlings caiu na segunda curva e fez grande recuperação da última (37ª) para a quinta posição.

Vídeo



Resultados Classificatórias Frauenfeld

P. # MXGP País Moto V Dif. Gap M.V. Speed
1 222 Cairoli, Antonio ITA KTM 12 24:46.322 0:00.000 1:52.818 52.6
2 461 Febvre, Romain FRA Yam 12 0:03.479 0:03.479 1:52.591 52.7
3 25 Desalle, Clement BEL Kaw 12 0:04.552 0:01.073 1:53.041 52.5
4 99 Anstie, Max GBR Hus 12 0:07.604 0:03.052 1:53.137 52.5
5 21 Paulin, Gautier FRA Hus 12 0:12.864 0:05.260 1:53.686 52.2
6 84 Herlings, Jeffrey NED KTM 12 0:14.678 0:01.814 1:52.648 52.7
7 243 Gajser, Tim SLO Hon 12 0:15.454 0:00.776 1:53.338 52.4
8 91 Seewer, Jeremy SUI Yam 12 0:15.592 0:00.138 1:53.365 52.3
9 89 Van Horebeek, Jeremy BEL Yam 12 0:24.309 0:08.717 1:53.741 52.2
10 100 Searle, Tommy GBR Kaw 12 0:29.298 0:04.989 1:54.525 51.8
11 33 Lieber, Julien BEL Kaw 12 0:30.066 0:00.768 1:55.112 51.6
12 777 Bobryshev, Evgeny RUS Suz 12 0:35.703 0:05.637 1:54.333 51.9
13 77 Lupino, Alessandro ITA Kaw 12 0:36.022 0:00.319 1:55.319 51.5
14 22 Strijbos, Kevin BEL KTM 12 0:37.234 0:01.212 1:55.269 51.5
15 7 Leok, Tanel EST Hus 12 0:45.839 0:08.605 1:55.269 51.5
16 259 Coldenhoff, Glenn NED KTM 12 0:46.681 0:00.842 1:56.111 51.1
17 128 Monticelli, Ivo ITA Yam 12 0:47.674 0:00.993 1:56.045 51.1
18 24 Simpson, Shaun GBR Yam 12 0:48.196 0:00.522 1:54.823 51.7
19 55 Irwin, Graeme GBR KTM 12 0:58.709 0:10.513 1:56.694 50.9
20 92 Guillod, Valentin SUI KTM 12 1:00.146 0:01.437 1:55.499 51.4
21 42 Waters, Todd AUS Hon 12 1:01.378 0:01.232 1:57.053 50.7
22 152 Petrov, Petar BUL Hon 12 1:21.827 0:20.449 1:57.820 50.4
23 920 Valentin, Ander ESP Hus 12 1:22.819 0:00.992 1:56.736 50.8
24 82 Baumgartner, Andy SUI KTM 12 1:32.544 0:09.725 1:58.044 50.3
25 62 Gercar, Klemen SLO Hus 12 1:35.145 0:02.601 1:58.465 50.1
26 868 Docherty, Michael RSA Hus 12 1:46.933 0:11.788 1:57.320 50.6
27 93 Bengtsson, Jonathan SWE KTM 12 1:56.093 0:09.160 2:00.386 49.3
28 501 Scheiwiller, Cyrill SUI Yam 12 2:00.177 0:04.084 2:01.366 48.9
29 78 Furlato, Yves SUI Hus 12 2:21.943 0:21.766 2:01.566 48.8
30 707 Kappel, Robin FRA Kaw 11 1 lap 1 lap 2:01.512 48.8
31 15 Bonini, Davide ITA KTM 11 1 lap 0:03.600 2:00.740 49.1
32 83 Renkens, Nathan BEL Hon 11 1 lap 0:03.953 2:00.209 49.4
33 80 Marini, Thomas SMR Kaw 11 1 lap 0:09.775 2:01.988 48.6
34 710 Bender, Nicolas SUI Hus 11 1 lap 0:00.770 2:01.852 48.7
35 875 Schaffter, Kim SUI Kaw 11 1 lap 0:20.164 2:02.992 48.2
36 817 Clermont, Jason FRA Kaw 11 1 lap 0:20.376 2:01.165 49
37 224 Brugnoni, Alessandro ITA KTM 11 1 lap 0:54.446 2:04.485 47.7

MX2 - Prado mantém boa forma com mais uma vitória em classificatórias

Jorge Prado continua em grande forma e andou mais uma na frente de seu principal rival Pauls Jonass, quarto colocado. A vitória na classificatória não tem nenhum efeito prático no campeonato, mas dá a prioridade na escolha do gate ao espanhol. Hunter Lawrence chegou a ultrapassar Prado e liderar por três voltas, mas deixou a motocicleta apagar e devolveu a posição depois de três voltas.

Após "pular" o MXGP da Bélgica, o brasileiro Gustavo Pessoa retornou ao campeonato e, mais uma vez, mostrou boa velocidade na classificatória com a 15ª posição entre 33 pilotos.

P. # MX2 País Moto V Dif. Gap M.V. Speed
1 61 Prado, Jorge ESP KTM 12 25:00.079 0:00.000 1:53.131 52.5
2 96 Lawrence, Hunter AUS Hon 12 0:01.786 0:01.786 1:53.905 52.1
3 64 Covington, Thomas USA Hus 12 0:08.532 0:06.746 1:53.911 52.1
4 1 Jonass, Pauls LAT KTM 12 0:14.127 0:05.595 1:54.283 51.9
5 19 Olsen, Thomas Kjer DEN Hus 12 0:19.061 0:04.934 1:54.986 51.6
6 919 Watson, Ben GBR Yam 12 0:25.074 0:06.013 1:55.964 51.2
7 10 Vlaanderen, Calvin NED Hon 12 0:36.141 0:11.067 1:55.656 51.3
8 747 Cervellin, Michele ITA Yam 12 0:44.114 0:07.973 1:56.966 50.7
9 118 Rubini, Stephen FRA KTM 12 0:48.452 0:04.338 1:57.263 50.6
10 56 Weltin, Marshal USA Kaw 12 0:52.015 0:03.563 1:57.369 50.6
11 127 Rodriguez, Anthony VEN Yam 12 0:59.683 0:07.668 1:56.521 50.9
12 98 Vaessen, Bas NED Hon 12 1:02.190 0:02.507 1:58.685 50
13 29 Jacobi, Henry GER Hus 12 1:06.112 0:03.922 1:57.985 50.3
14 34 De Waal, Micha-Boy NED Hon 12 1:07.595 0:01.483 1:58.560 50.1
15 891 Pessoa, Gustavo BRA Kaw 12 1:14.779 0:07.184 1:58.644 50
16 172 Van doninck, Brent BEL Hus 12 1:18.978 0:04.199 1:58.557 50.1
17 297 Gole, Anton SWE Yam 12 1:24.610 0:05.632 1:59.816 49.5
18 52 Malaval, Adrien FRA KTM 12 1:28.342 0:03.732 2:00.628 49.2
19 95 Furlotti, Simone ITA Yam 12 1:29.765 0:01.423 2:00.142 49.4
20 44 Lesiardo, Morgan ITA KTM 12 1:34.319 0:04.554 1:59.863 49.5
21 321 Bernardini, Samuele ITA Yam 12 1:39.424 0:05.105 1:59.657 49.6
22 226 Koch, Tom GER KTM 12 1:40.692 0:01.268 2:00.106 49.4
23 75 Roosiorg, Hardi EST KTM 12 1:42.829 0:02.137 2:00.545 49.2
24 485 Savaste, Kim FIN KTM 12 1:47.718 0:04.889 2:00.231 49.4
25 102 Sikyna, Richard SVK KTM 12 1:49.743 0:02.025 2:00.878 49.1
26 931 Zanotti, Andrea SMR Hus 12 2:00.318 0:10.575 2:01.380 48.9
27 949 Contessi, Alessandro SUI Kaw 11 1 lap 1 lap 2:03.907 47.9
28 331 Freidig, Loris SUI Hus 11 1 lap 0:02.063 2:04.723 47.6
29 377 Krc, Martin CZE KTM 11 1 lap 0:05.360 2:03.353 48.1
30 79 Zurbrugg, Cyril SUI Yam 11 1 lap 1:04.682 2:08.296 46.2
31 312 Casas, Oriol ESP Hon 9 3 laps 2 laps 2:00.702 49.2
32 101 Pichon, Zachary FRA KTM 3 9 laps 6 laps 2:01.453 48.9
33 193 Geerts, Jago BEL Yam 0 12 laps 3 laps 0:00.000 0











© 2000 - 2018 MotoX MX1 Internet